createdAt,value
2023-02-09T00:00:40.627Z,20.40
2023-02-09T00:01:40.626Z,18.30
2023-02-09T00:02:40.603Z,20.10
2023-02-09T00:03:40.604Z,16.70
2023-02-09T00:04:40.524Z,18.90
2023-02-09T00:05:40.509Z,16.80
2023-02-09T00:06:40.490Z,19.80
2023-02-09T00:07:40.506Z,22.00
2023-02-09T00:08:40.447Z,18.70
2023-02-09T00:09:40.426Z,21.80
2023-02-09T00:10:40.410Z,17.90
2023-02-09T00:11:40.418Z,20.10
2023-02-09T00:12:40.402Z,19.10
2023-02-09T00:13:40.353Z,20.00
2023-02-09T00:14:40.331Z,19.50
2023-02-09T00:15:40.307Z,21.50
2023-02-09T00:16:40.361Z,20.80
2023-02-09T00:17:40.299Z,20.30
2023-02-09T00:18:40.251Z,20.60
2023-02-09T00:19:40.232Z,19.20
2023-02-09T00:20:40.207Z,21.00
2023-02-09T00:21:40.246Z,22.60
2023-02-09T00:22:40.170Z,20.20
2023-02-09T00:23:40.175Z,21.60
2023-02-09T00:24:40.130Z,22.40
2023-02-09T00:25:40.109Z,20.50
2023-02-09T00:26:40.193Z,20.50
2023-02-09T00:27:40.068Z,22.10
2023-02-09T00:28:40.084Z,20.00
2023-02-09T00:29:40.030Z,19.90
2023-02-09T00:30:40.024Z,18.80
2023-02-09T00:31:40.054Z,21.00
2023-02-09T00:32:39.971Z,20.20
2023-02-09T00:33:39.981Z,26.90
2023-02-09T00:34:39.923Z,23.80
2023-02-09T00:35:39.906Z,23.30
2023-02-09T00:36:39.896Z,22.10
2023-02-09T00:37:39.870Z,22.40
2023-02-09T00:38:39.875Z,23.80
2023-02-09T00:39:39.826Z,22.20
2023-02-09T00:40:39.801Z,19.70
2023-02-09T00:41:39.781Z,20.60
2023-02-09T00:42:39.761Z,23.20
2023-02-09T00:43:39.768Z,21.00
2023-02-09T00:44:39.732Z,21.90
2023-02-09T00:45:39.750Z,22.70
2023-02-09T00:46:39.686Z,24.70
2023-02-09T00:47:39.657Z,22.70
2023-02-09T00:48:39.670Z,24.40
2023-02-09T00:49:39.622Z,23.80
2023-02-09T00:50:39.605Z,23.40
2023-02-09T00:51:39.583Z,23.60
2023-02-09T00:52:39.570Z,21.50
2023-02-09T00:53:39.561Z,23.10
2023-02-09T00:54:39.515Z,21.70
2023-02-09T00:55:39.498Z,23.00
2023-02-09T00:56:39.473Z,23.70
2023-02-09T00:57:39.452Z,23.70
2023-02-09T00:58:39.465Z,21.60
2023-02-09T00:59:39.419Z,22.70
2023-02-09T01:00:39.410Z,25.10
2023-02-09T01:01:39.443Z,25.70
2023-02-09T01:02:39.357Z,21.60
2023-02-09T01:03:39.364Z,24.50
2023-02-09T01:04:39.362Z,26.60
2023-02-09T01:05:39.290Z,22.70
2023-02-09T01:06:39.274Z,20.30
2023-02-09T01:07:39.250Z,25.00
2023-02-09T01:08:39.278Z,24.00
2023-02-09T01:09:39.207Z,22.20
2023-02-09T01:10:39.205Z,25.60
2023-02-09T01:11:39.164Z,23.80
2023-02-09T01:12:39.150Z,22.40
2023-02-09T01:13:39.147Z,24.70
2023-02-09T01:14:39.103Z,24.40
2023-02-09T01:15:39.094Z,25.10
2023-02-09T01:16:39.097Z,27.10
2023-02-09T01:17:39.042Z,26.20
2023-02-09T01:18:39.049Z,21.90
2023-02-09T01:19:39.002Z,25.10
2023-02-09T01:20:38.983Z,23.50
2023-02-09T01:21:38.951Z,24.80
2023-02-09T01:22:38.937Z,22.10
2023-02-09T01:23:38.950Z,24.20
2023-02-09T01:24:38.900Z,27.20
2023-02-09T01:25:38.874Z,22.40
2023-02-09T01:26:38.884Z,25.40
2023-02-09T01:27:38.844Z,21.00
2023-02-09T01:28:38.847Z,22.00
2023-02-09T01:29:38.803Z,23.00
2023-02-09T01:30:38.871Z,23.70
2023-02-09T01:31:38.947Z,25.00
2023-02-09T01:32:38.743Z,24.50
2023-02-09T01:33:38.751Z,23.60
2023-02-09T01:34:38.700Z,26.50
2023-02-09T01:35:38.674Z,23.10
2023-02-09T01:36:38.698Z,22.50
2023-02-09T01:37:38.651Z,25.10
2023-02-09T01:38:38.647Z,23.20
2023-02-09T01:39:38.594Z,22.30
2023-02-09T01:40:38.594Z,22.70
2023-02-09T01:41:38.588Z,23.10
2023-02-09T01:42:38.537Z,24.80
2023-02-09T01:43:38.554Z,22.40
2023-02-09T01:44:38.512Z,23.70
2023-02-09T01:45:39.440Z,21.60
2023-02-09T01:46:38.523Z,21.70
2023-02-09T01:47:38.439Z,27.30
2023-02-09T01:48:38.432Z,24.20
2023-02-09T01:49:38.431Z,22.40
2023-02-09T01:50:38.385Z,22.80
2023-02-09T01:51:38.405Z,23.20
2023-02-09T01:52:38.358Z,23.80
2023-02-09T01:53:38.327Z,24.00
2023-02-09T01:54:38.322Z,26.20
2023-02-09T01:55:38.283Z,23.70
2023-02-09T01:56:38.274Z,20.90
2023-02-09T01:57:38.271Z,23.10
2023-02-09T01:58:38.222Z,24.80
2023-02-09T01:59:38.227Z,23.80
2023-02-09T02:00:38.186Z,24.40
2023-02-09T02:01:38.225Z,22.00
2023-02-09T02:02:38.164Z,25.30
2023-02-09T02:03:38.117Z,22.60
2023-02-09T02:04:38.138Z,23.60
2023-02-09T02:05:38.079Z,23.80
2023-02-09T02:06:38.056Z,23.20
2023-02-09T02:07:38.036Z,25.30
2023-02-09T02:08:38.037Z,24.80
2023-02-09T02:09:38.024Z,22.50
2023-02-09T02:10:37.976Z,23.50
2023-02-09T02:11:37.953Z,24.50
2023-02-09T02:12:37.957Z,25.40
2023-02-09T02:13:37.913Z,22.80
2023-02-09T02:14:37.931Z,23.80
2023-02-09T02:15:37.942Z,23.00
2023-02-09T02:16:37.861Z,24.00
2023-02-09T02:17:37.827Z,22.50
2023-02-09T02:18:37.811Z,24.60
2023-02-09T02:19:37.814Z,23.40
2023-02-09T02:20:37.784Z,21.00
2023-02-09T02:21:37.743Z,23.20
2023-02-09T02:22:37.721Z,23.70
2023-02-09T02:23:37.703Z,21.20
2023-02-09T02:24:37.724Z,23.50
2023-02-09T02:25:37.666Z,26.10
2023-02-09T02:26:37.648Z,25.30
2023-02-09T02:27:37.617Z,24.10
2023-02-09T02:28:37.594Z,24.50
2023-02-09T02:29:37.605Z,24.20
2023-02-09T02:30:37.644Z,21.30
2023-02-09T02:31:37.589Z,26.10
2023-02-09T02:32:37.554Z,21.40
2023-02-09T02:33:37.504Z,23.10
2023-02-09T02:34:37.509Z,25.10
2023-02-09T02:35:37.457Z,23.90
2023-02-09T02:36:37.438Z,24.40
2023-02-09T02:37:37.412Z,22.70
2023-02-09T02:38:37.408Z,25.30
2023-02-09T02:39:37.404Z,25.30
2023-02-09T02:40:37.351Z,25.90
2023-02-09T02:41:37.327Z,24.90
2023-02-09T02:42:37.315Z,22.90
2023-02-09T02:43:37.317Z,23.50
2023-02-09T02:44:37.292Z,24.60
2023-02-09T02:45:37.250Z,23.20
2023-02-09T02:46:37.259Z,25.40
2023-02-09T02:47:37.204Z,24.60
2023-02-09T02:48:37.193Z,24.90
2023-02-09T02:49:37.196Z,22.70
2023-02-09T02:50:37.198Z,23.90
2023-02-09T02:51:37.141Z,25.00
2023-02-09T02:52:37.107Z,24.80
2023-02-09T02:53:37.086Z,25.60
2023-02-09T02:54:37.105Z,26.90
2023-02-09T02:55:37.051Z,23.90
2023-02-09T02:56:37.023Z,25.40
2023-02-09T02:57:37.014Z,26.20
2023-02-09T02:58:36.994Z,19.70
2023-02-09T02:59:37.002Z,24.40
2023-02-09T03:00:36.945Z,25.80
2023-02-09T03:01:36.933Z,24.00
2023-02-09T03:02:36.916Z,27.20
2023-02-09T03:03:36.884Z,27.00
2023-02-09T03:04:36.897Z,23.70
2023-02-09T03:05:36.878Z,23.60
2023-02-09T03:06:36.826Z,24.80
2023-02-09T03:07:36.809Z,24.40
2023-02-09T03:08:36.786Z,26.20
2023-02-09T03:09:36.794Z,22.30
2023-02-09T03:10:36.745Z,23.40
2023-02-09T03:11:36.723Z,23.10
2023-02-09T03:12:36.717Z,23.50
2023-02-09T03:13:36.686Z,23.50
2023-02-09T03:14:36.694Z,25.60
2023-02-09T03:15:36.638Z,25.00
2023-02-09T03:16:36.616Z,22.00
2023-02-09T03:17:36.596Z,24.90
2023-02-09T03:18:36.576Z,23.20
2023-02-09T03:19:36.598Z,26.10
2023-02-09T03:20:36.537Z,22.60
2023-02-09T03:21:36.517Z,26.90
2023-02-09T03:22:36.501Z,25.60
2023-02-09T03:23:36.481Z,25.70
2023-02-09T03:24:36.484Z,26.10
2023-02-09T03:25:36.440Z,20.90
2023-02-09T03:26:36.416Z,23.20
2023-02-09T03:27:36.396Z,24.70
2023-02-09T03:28:36.381Z,23.30
2023-02-09T03:29:36.381Z,23.70
2023-02-09T03:30:36.340Z,22.80
2023-02-09T03:31:36.331Z,23.30
2023-02-09T03:32:36.287Z,23.90
2023-02-09T03:33:36.273Z,26.00
2023-02-09T03:34:36.281Z,23.70
2023-02-09T03:35:36.221Z,24.20
2023-02-09T03:36:36.206Z,25.20
2023-02-09T03:37:36.187Z,26.10
2023-02-09T03:38:36.180Z,25.70
2023-02-09T03:39:36.173Z,25.50
2023-02-09T03:40:36.150Z,24.00
2023-02-09T03:41:36.105Z,25.00
2023-02-09T03:42:36.082Z,26.50
2023-02-09T03:43:36.060Z,27.60
2023-02-09T03:44:36.045Z,24.10
2023-02-09T03:45:36.053Z,24.70
2023-02-09T03:46:36.043Z,26.30
2023-02-09T03:47:35.985Z,26.00
2023-02-09T03:48:35.963Z,25.80
2023-02-09T03:49:35.947Z,25.00
2023-02-09T03:50:35.950Z,24.70
2023-02-09T03:51:35.906Z,26.70
2023-02-09T03:52:35.882Z,26.00
2023-02-09T03:53:35.864Z,26.10
2023-02-09T03:54:35.840Z,26.90
2023-02-09T03:55:35.851Z,25.60
2023-02-09T03:56:35.799Z,26.20
2023-02-09T03:57:35.785Z,26.20
2023-02-09T03:58:35.762Z,24.50
2023-02-09T03:59:35.742Z,24.90
2023-02-09T04:00:35.772Z,25.10
2023-02-09T04:01:35.699Z,23.50
2023-02-09T04:02:35.703Z,26.40
2023-02-09T04:03:35.657Z,26.20
2023-02-09T04:04:35.641Z,27.40
2023-02-09T04:05:35.652Z,26.60
2023-02-09T04:06:35.603Z,26.20
2023-02-09T04:07:35.590Z,25.60
2023-02-09T04:08:35.559Z,25.80
2023-02-09T04:09:36.541Z,25.70
2023-02-09T04:10:35.551Z,29.30
2023-02-09T04:11:35.500Z,24.60
2023-02-09T04:12:35.483Z,26.60
2023-02-09T04:13:35.462Z,28.80
2023-02-09T04:14:35.454Z,25.50
2023-02-09T04:15:35.459Z,27.40
2023-02-09T04:16:35.440Z,24.50
2023-02-09T04:17:35.384Z,26.70
2023-02-09T04:18:35.364Z,27.10
2023-02-09T04:19:35.352Z,25.10
2023-02-09T04:20:35.352Z,26.50
2023-02-09T04:21:35.305Z,27.30
2023-02-09T04:22:35.287Z,25.60
2023-02-09T04:23:35.268Z,25.00
2023-02-09T04:24:35.251Z,26.00
2023-02-09T04:25:35.253Z,27.60
2023-02-09T04:26:35.204Z,24.60
2023-02-09T04:27:35.204Z,27.70
2023-02-09T04:28:35.166Z,25.20
2023-02-09T04:29:35.144Z,24.50
2023-02-09T04:30:35.209Z,26.20
2023-02-09T04:31:35.194Z,24.50
2023-02-09T04:32:35.087Z,28.00
2023-02-09T04:33:35.065Z,23.00
2023-02-09T04:34:35.053Z,26.30
2023-02-09T04:35:35.062Z,25.30
2023-02-09T04:36:35.010Z,26.30
2023-02-09T04:37:34.987Z,28.00
2023-02-09T04:38:34.961Z,27.60
2023-02-09T04:39:34.949Z,27.40
2023-02-09T04:40:34.957Z,24.80
2023-02-09T04:41:34.918Z,27.70
2023-02-09T04:42:34.884Z,25.00
2023-02-09T04:43:34.874Z,24.10
2023-02-09T04:44:34.864Z,27.30
2023-02-09T04:45:34.884Z,25.80
2023-02-09T04:46:34.816Z,28.00
2023-02-09T04:47:34.787Z,27.70
2023-02-09T04:48:34.767Z,24.50
2023-02-09T04:49:34.750Z,24.50
2023-02-09T04:50:34.766Z,26.20
2023-02-09T04:51:34.721Z,25.10
2023-02-09T04:52:34.696Z,26.10
2023-02-09T04:53:34.674Z,28.70
2023-02-09T04:54:34.653Z,27.10
2023-02-09T04:55:34.677Z,26.00
2023-02-09T04:56:34.613Z,28.30
2023-02-09T04:57:34.599Z,24.10
2023-02-09T04:58:34.576Z,24.10
2023-02-09T04:59:34.558Z,25.30
2023-02-09T05:00:34.539Z,26.70
2023-02-09T05:01:34.648Z,23.30
2023-02-09T05:02:34.498Z,25.40
2023-02-09T05:03:34.580Z,25.10
2023-02-09T05:04:34.460Z,27.10
2023-02-09T05:05:34.435Z,26.30
2023-02-09T05:06:34.448Z,26.90
2023-02-09T05:07:34.408Z,28.90
2023-02-09T05:08:34.381Z,25.50
2023-02-09T05:09:34.361Z,27.40
2023-02-09T05:10:34.336Z,25.10
2023-02-09T05:11:34.354Z,27.40
2023-02-09T05:12:34.307Z,27.30
2023-02-09T05:13:34.280Z,27.30
2023-02-09T05:14:34.262Z,23.20
2023-02-09T05:15:34.266Z,26.00
2023-02-09T05:16:34.281Z,26.00
2023-02-09T05:17:34.205Z,28.40
2023-02-09T05:18:34.181Z,29.30
2023-02-09T05:19:34.160Z,27.60
2023-02-09T05:20:34.137Z,25.90
2023-02-09T05:21:34.144Z,28.10
2023-02-09T05:22:34.095Z,26.50
2023-02-09T05:23:34.092Z,25.80
2023-02-09T05:24:34.043Z,26.80
2023-02-09T05:25:35.044Z,28.00
2023-02-09T05:26:34.041Z,26.60
2023-02-09T05:27:33.990Z,25.00
2023-02-09T05:28:33.971Z,27.00
2023-02-09T05:29:33.956Z,27.60
2023-02-09T05:30:33.937Z,27.00
2023-02-09T05:31:34.064Z,27.30
2023-02-09T05:32:33.892Z,29.10
2023-02-09T05:33:33.875Z,26.80
2023-02-09T05:34:33.864Z,27.40
2023-02-09T05:35:33.833Z,30.30
2023-02-09T05:36:33.865Z,25.60
2023-02-09T05:37:33.799Z,25.70
2023-02-09T05:38:33.782Z,28.70
2023-02-09T05:39:33.763Z,27.10
2023-02-09T05:40:33.739Z,27.60
2023-02-09T05:41:33.756Z,28.20
2023-02-09T05:42:33.704Z,28.20
2023-02-09T05:43:33.680Z,28.10
2023-02-09T05:44:33.667Z,27.20
2023-02-09T05:45:33.665Z,29.50
2023-02-09T05:46:33.657Z,30.30
2023-02-09T05:47:33.598Z,27.50
2023-02-09T05:48:33.584Z,26.20
2023-02-09T05:49:33.571Z,28.10
2023-02-09T05:50:33.555Z,27.80
2023-02-09T05:51:33.551Z,29.40
2023-02-09T05:52:33.506Z,27.00
2023-02-09T05:53:33.483Z,27.60
2023-02-09T05:54:33.465Z,28.40
2023-02-09T05:55:33.440Z,28.10
2023-02-09T05:56:33.446Z,29.40
2023-02-09T05:57:34.402Z,25.70
2023-02-09T05:58:33.387Z,27.70
2023-02-09T05:59:33.371Z,28.40
2023-02-09T06:00:33.346Z,26.50
2023-02-09T06:01:33.354Z,29.00
2023-02-09T06:02:33.365Z,26.50
2023-02-09T06:03:33.313Z,27.40
2023-02-09T06:04:33.266Z,26.50
2023-02-09T06:05:33.251Z,28.50
2023-02-09T06:06:33.258Z,23.40
2023-02-09T06:07:33.207Z,26.10
2023-02-09T06:08:33.185Z,27.10
2023-02-09T06:09:33.164Z,27.90
2023-02-09T06:10:33.149Z,25.90
2023-02-09T06:11:33.166Z,28.10
2023-02-09T06:12:33.105Z,26.80
2023-02-09T06:13:33.092Z,30.10
2023-02-09T06:14:33.105Z,27.10
2023-02-09T06:15:33.085Z,29.50
2023-02-09T06:16:33.103Z,27.90
2023-02-09T06:17:33.037Z,29.70
2023-02-09T06:18:32.989Z,28.20
2023-02-09T06:19:32.972Z,28.30
2023-02-09T06:20:32.972Z,30.20
2023-02-09T06:21:32.962Z,29.60
2023-02-09T06:22:32.920Z,29.80
2023-02-09T06:23:35.144Z,27.10
2023-02-09T06:24:32.874Z,30.80
2023-02-09T06:25:32.859Z,27.10
2023-02-09T06:26:32.869Z,29.40
2023-02-09T06:27:32.822Z,30.10
2023-02-09T06:28:32.867Z,27.20
2023-02-09T06:29:32.778Z,29.20
2023-02-09T06:30:33.052Z,30.10
2023-02-09T06:31:33.821Z,28.50
2023-02-09T06:32:32.720Z,32.20
2023-02-09T06:33:32.704Z,29.70
2023-02-09T06:34:32.677Z,29.20
2023-02-09T06:35:32.657Z,30.00
2023-02-09T06:36:32.660Z,29.80
2023-02-09T06:37:33.617Z,30.40
2023-02-09T06:38:32.598Z,30.70
2023-02-09T06:39:32.578Z,28.20
2023-02-09T06:40:32.562Z,29.30
2023-02-09T06:41:32.573Z,30.70
2023-02-09T06:42:32.524Z,28.50
2023-02-09T06:43:32.505Z,31.30
2023-02-09T06:44:32.487Z,31.60
2023-02-09T06:45:32.472Z,27.40
2023-02-09T06:46:32.546Z,28.00
2023-02-09T06:47:32.431Z,31.30
2023-02-09T06:48:32.415Z,29.50
2023-02-09T06:49:32.441Z,30.40
2023-02-09T06:50:32.372Z,27.80
2023-02-09T06:51:32.386Z,29.50
2023-02-09T06:52:32.331Z,28.70
2023-02-09T06:53:32.339Z,27.30
2023-02-09T06:54:32.299Z,27.20
2023-02-09T06:55:32.288Z,29.30
2023-02-09T06:56:32.284Z,29.30
2023-02-09T06:57:32.239Z,27.60
2023-02-09T06:58:32.232Z,27.30
2023-02-09T06:59:32.198Z,26.30
2023-02-09T07:00:32.179Z,28.30
2023-02-09T07:01:32.237Z,26.30
2023-02-09T07:02:32.176Z,26.40
2023-02-09T07:03:32.118Z,26.40
2023-02-09T07:04:32.094Z,26.30
2023-02-09T07:05:32.088Z,27.50
2023-02-09T07:06:32.088Z,26.60
2023-02-09T07:07:32.041Z,27.10
2023-02-09T07:08:32.015Z,26.30
2023-02-09T07:09:31.999Z,27.40
2023-02-09T07:10:31.981Z,26.70
2023-02-09T07:11:31.992Z,31.20
2023-02-09T07:12:31.940Z,25.50
2023-02-09T07:13:31.951Z,26.60
2023-02-09T07:14:31.896Z,25.90
2023-02-09T07:15:31.875Z,24.50
2023-02-09T07:16:31.879Z,24.50
2023-02-09T07:17:31.845Z,25.50
2023-02-09T07:18:31.812Z,27.00
2023-02-09T07:19:31.795Z,23.60
2023-02-09T07:20:31.775Z,25.60
2023-02-09T07:21:31.788Z,22.90
2023-02-09T07:22:31.739Z,23.60
2023-02-09T07:23:31.718Z,23.50
2023-02-09T07:24:31.700Z,23.00
2023-02-09T07:25:32.207Z,23.90
2023-02-09T07:26:31.688Z,22.20
2023-02-09T07:27:31.643Z,21.70
2023-02-09T07:28:31.699Z,22.50
2023-02-09T07:29:31.605Z,23.20
2023-02-09T07:30:31.629Z,22.20
2023-02-09T07:31:31.739Z,23.10
2023-02-09T07:32:31.552Z,22.90
2023-02-09T07:33:31.545Z,19.60
2023-02-09T07:34:31.509Z,21.50
2023-02-09T07:35:31.492Z,21.60
2023-02-09T07:36:31.507Z,22.80
2023-02-09T07:37:31.467Z,22.50
2023-02-09T07:38:31.435Z,21.50
2023-02-09T07:39:31.421Z,21.00
2023-02-09T07:40:31.403Z,20.70
2023-02-09T07:41:31.410Z,21.60
2023-02-09T07:42:31.368Z,19.70
2023-02-09T07:43:31.359Z,22.10
2023-02-09T07:44:31.332Z,21.30
2023-02-09T07:45:31.314Z,20.20
2023-02-09T07:46:31.340Z,22.30
2023-02-09T07:47:31.280Z,30.00
2023-02-09T07:48:31.262Z,26.30
2023-02-09T07:49:31.244Z,22.30
2023-02-09T07:50:31.270Z,22.40
2023-02-09T07:51:33.360Z,22.20
2023-02-09T07:52:32.186Z,19.40
2023-02-09T07:53:31.180Z,19.80
2023-02-09T07:54:31.147Z,21.50
2023-02-09T07:55:31.147Z,21.80
2023-02-09T07:56:31.166Z,20.20
2023-02-09T07:57:32.114Z,19.30
2023-02-09T07:58:31.069Z,20.60
2023-02-09T07:59:31.045Z,22.10
2023-02-09T08:00:31.036Z,19.50
2023-02-09T08:01:31.056Z,23.00
2023-02-09T08:02:30.984Z,19.50
2023-02-09T08:03:30.966Z,18.30
2023-02-09T08:04:30.943Z,22.90
2023-02-09T08:05:30.965Z,21.00
2023-02-09T08:06:41.631Z,19.60
2023-02-09T08:07:32.909Z,20.20
2023-02-09T08:08:30.872Z,18.60
2023-02-09T08:09:30.830Z,20.70
2023-02-09T08:10:30.816Z,20.00
2023-02-09T08:11:30.821Z,22.60
2023-02-09T08:12:30.768Z,19.00
2023-02-09T08:13:30.752Z,18.30
2023-02-09T08:14:30.733Z,18.80
2023-02-09T08:15:30.702Z,19.00
2023-02-09T08:16:30.778Z,19.70
2023-02-09T08:17:30.691Z,21.80
2023-02-09T08:18:30.655Z,18.40
2023-02-09T08:19:30.626Z,21.20
2023-02-09T08:20:30.602Z,20.20
2023-02-09T08:21:30.586Z,20.60
2023-02-09T08:22:30.594Z,19.70
2023-02-09T08:23:30.566Z,18.60
2023-02-09T08:24:30.523Z,21.80
2023-02-09T08:25:30.505Z,20.00
2023-02-09T08:26:30.483Z,19.80
2023-02-09T08:27:30.501Z,19.20
2023-02-09T08:28:43.125Z,18.30
2023-02-09T08:29:32.425Z,21.10
2023-02-09T08:30:30.408Z,19.40
2023-02-09T08:31:30.505Z,18.80
2023-02-09T08:32:30.400Z,20.30
2023-02-09T08:33:30.343Z,20.60
2023-02-09T08:34:30.326Z,20.30
2023-02-09T08:35:30.830Z,21.10
2023-02-09T08:36:31.290Z,20.60
2023-02-09T08:37:30.296Z,20.80
2023-02-09T08:38:30.243Z,20.10
2023-02-09T08:39:30.236Z,20.70
2023-02-09T08:40:30.256Z,23.50
2023-02-09T08:41:30.189Z,21.00
2023-02-09T08:42:30.239Z,21.90
2023-02-09T08:43:30.144Z,19.40
2023-02-09T08:44:30.129Z,19.00
2023-02-09T08:45:30.210Z,19.40
2023-02-09T08:46:30.164Z,22.30
2023-02-09T08:47:30.072Z,20.60
2023-02-09T08:48:30.083Z,21.00
2023-02-09T08:49:30.050Z,19.20
2023-02-09T08:50:30.016Z,18.80
2023-02-09T08:51:29.993Z,21.50
2023-02-09T08:52:30.004Z,20.00
2023-02-09T08:53:29.972Z,19.80
2023-02-09T08:54:29.939Z,20.30
2023-02-09T08:55:29.910Z,20.90
2023-02-09T08:56:29.897Z,20.30
2023-02-09T08:57:43.135Z,20.80
2023-02-09T08:58:31.863Z,19.10
2023-02-09T08:59:29.835Z,20.60
2023-02-09T09:00:29.819Z,19.20
2023-02-09T09:01:29.841Z,19.80
2023-02-09T09:02:29.808Z,20.20
2023-02-09T09:03:30.020Z,20.10
2023-02-09T09:04:29.745Z,22.10
2023-02-09T09:05:31.985Z,22.00
2023-02-09T09:06:29.706Z,18.20
2023-02-09T09:07:29.720Z,20.70
2023-02-09T09:08:29.676Z,21.50
2023-02-09T09:09:29.647Z,20.70
2023-02-09T09:10:29.629Z,20.40
2023-02-09T09:11:29.607Z,20.10
2023-02-09T09:12:29.606Z,21.30
2023-02-09T09:13:29.568Z,21.90
2023-02-09T09:14:29.539Z,21.30
2023-02-09T09:15:29.520Z,18.40
2023-02-09T09:16:29.588Z,20.50
2023-02-09T09:17:29.516Z,19.60
2023-02-09T09:18:29.466Z,20.20
2023-02-09T09:19:29.449Z,20.50
2023-02-09T09:20:29.428Z,19.30
2023-02-09T09:21:29.415Z,23.00
2023-02-09T09:22:29.418Z,20.10
2023-02-09T09:23:29.393Z,22.90
2023-02-09T09:24:29.358Z,20.40
2023-02-09T09:25:29.350Z,20.30
2023-02-09T09:26:29.326Z,19.10
2023-02-09T09:27:29.322Z,20.40
2023-02-09T09:28:29.383Z,20.20
2023-02-09T09:29:29.252Z,20.90
2023-02-09T09:30:29.235Z,22.90
2023-02-09T09:31:29.373Z,21.90
2023-02-09T09:32:29.398Z,22.00
2023-02-09T09:33:29.208Z,20.20
2023-02-09T09:34:29.156Z,21.90
2023-02-09T09:35:29.142Z,20.70
2023-02-09T09:36:29.120Z,20.00
2023-02-09T09:37:29.129Z,20.20
2023-02-09T09:38:29.085Z,22.60
2023-02-09T09:39:29.070Z,20.10
2023-02-09T09:40:29.041Z,20.00
2023-02-09T09:41:29.027Z,19.30
2023-02-09T09:42:29.024Z,19.40
2023-02-09T09:43:29.012Z,19.80
2023-02-09T09:44:28.962Z,20.60
2023-02-09T09:45:28.941Z,19.40
2023-02-09T09:46:28.963Z,22.50
2023-02-09T09:47:29.932Z,20.90
2023-02-09T09:48:28.878Z,21.60
2023-02-09T09:49:28.860Z,20.00
2023-02-09T09:50:28.855Z,20.40
2023-02-09T09:51:28.817Z,21.90
2023-02-09T09:52:28.844Z,24.40
2023-02-09T09:53:28.777Z,20.50
2023-02-09T09:54:28.759Z,20.70
2023-02-09T09:55:28.773Z,20.40
2023-02-09T09:56:28.726Z,20.00
2023-02-09T09:57:28.728Z,21.10
2023-02-09T09:58:28.683Z,23.90
2023-02-09T09:59:28.661Z,22.00
2023-02-09T10:00:28.672Z,20.60
2023-02-09T10:01:28.839Z,18.90
2023-02-09T10:02:28.619Z,22.70
2023-02-09T10:03:28.578Z,21.10
2023-02-09T10:04:28.600Z,21.40
2023-02-09T10:05:28.535Z,19.00
2023-02-09T10:06:28.984Z,19.60
2023-02-09T10:07:28.514Z,21.00
2023-02-09T10:08:28.448Z,21.00
2023-02-09T10:09:28.449Z,20.30
2023-02-09T10:10:28.421Z,20.00
2023-02-09T10:11:28.405Z,21.40
2023-02-09T10:12:28.410Z,19.80
2023-02-09T10:13:28.360Z,20.70
2023-02-09T10:14:28.334Z,21.20
2023-02-09T10:15:28.325Z,19.40
2023-02-09T10:16:28.303Z,18.70
2023-02-09T10:17:28.306Z,19.70
2023-02-09T10:18:28.253Z,22.10
2023-02-09T10:19:28.273Z,20.10
2023-02-09T10:20:28.209Z,21.90
2023-02-09T10:21:28.890Z,20.40
2023-02-09T10:22:28.174Z,19.40
2023-02-09T10:23:28.158Z,19.70
2023-02-09T10:24:28.165Z,21.30
2023-02-09T10:25:28.112Z,21.20
2023-02-09T10:26:28.094Z,21.10
2023-02-09T10:27:28.124Z,21.80
2023-02-09T10:28:28.096Z,20.10
2023-02-09T10:29:28.023Z,19.30
2023-02-09T10:30:28.048Z,20.70
2023-02-09T10:31:28.054Z,22.10
2023-02-09T10:32:27.960Z,21.10
2023-02-09T10:33:27.963Z,20.20
2023-02-09T10:34:27.915Z,21.40
2023-02-09T10:35:27.905Z,21.70
2023-02-09T10:36:27.873Z,23.10
2023-02-09T10:37:27.855Z,23.70
2023-02-09T10:38:27.857Z,22.70
2023-02-09T10:39:27.842Z,21.40
2023-02-09T10:40:27.797Z,19.50
2023-02-09T10:41:27.762Z,21.10
2023-02-09T10:42:27.737Z,23.10
2023-02-09T10:43:27.712Z,22.10
2023-02-09T10:44:27.724Z,23.90
2023-02-09T10:45:27.677Z,22.90
2023-02-09T10:46:27.714Z,21.70
2023-02-09T10:47:27.642Z,21.80
2023-02-09T10:48:27.601Z,22.10
2023-02-09T10:49:27.636Z,21.40
2023-02-09T10:50:27.557Z,22.60
2023-02-09T10:51:27.572Z,22.30
2023-02-09T10:52:27.527Z,22.50
2023-02-09T10:53:27.529Z,21.40
2023-02-09T10:54:27.477Z,21.60
2023-02-09T10:55:27.461Z,21.90
2023-02-09T10:56:27.448Z,22.10
2023-02-09T10:57:27.425Z,23.00
2023-02-09T10:58:27.440Z,21.50
2023-02-09T10:59:27.381Z,22.60
2023-02-09T11:00:27.365Z,22.20
2023-02-09T11:01:27.466Z,21.80
2023-02-09T11:02:27.329Z,24.40
2023-02-09T11:03:27.360Z,22.00
2023-02-09T11:04:27.493Z,20.80
2023-02-09T11:05:27.301Z,20.00
2023-02-09T11:06:27.254Z,22.10
2023-02-09T11:07:27.240Z,23.20
2023-02-09T11:08:27.247Z,21.90
2023-02-09T11:09:27.205Z,20.50
2023-02-09T11:10:27.192Z,23.20
2023-02-09T11:11:27.167Z,23.30
2023-02-09T11:12:27.154Z,22.40
2023-02-09T11:13:27.173Z,21.30
2023-02-09T11:14:27.117Z,20.90
2023-02-09T11:15:27.099Z,20.40
2023-02-09T11:16:27.111Z,22.10
2023-02-09T11:17:27.074Z,23.10
2023-02-09T11:18:27.076Z,21.20
2023-02-09T11:19:27.036Z,20.20
2023-02-09T11:20:27.911Z,23.30
2023-02-09T11:21:27.006Z,22.00
2023-02-09T11:22:29.974Z,24.30
2023-02-09T11:23:27.997Z,25.00
2023-02-09T11:24:26.948Z,25.00
2023-02-09T11:25:26.944Z,25.70
2023-02-09T11:26:26.935Z,27.30
2023-02-09T11:27:26.900Z,22.30
2023-02-09T11:28:26.992Z,23.90
2023-02-09T11:29:26.859Z,25.20
2023-02-09T11:30:26.897Z,22.50
2023-02-09T11:31:26.904Z,24.80
2023-02-09T11:32:26.808Z,22.20
2023-02-09T11:33:26.799Z,24.00
2023-02-09T11:34:26.770Z,24.10
2023-02-09T11:35:26.780Z,22.40
2023-02-09T11:36:26.732Z,23.30
2023-02-09T11:37:26.716Z,23.60
2023-02-09T11:38:26.736Z,21.30
2023-02-09T11:39:26.680Z,22.10
2023-02-09T11:40:26.666Z,22.10
2023-02-09T11:41:26.652Z,24.30
2023-02-09T11:42:26.627Z,23.30
2023-02-09T11:43:26.641Z,22.10
2023-02-09T11:44:26.596Z,20.50
2023-02-09T11:45:26.573Z,21.90
2023-02-09T11:46:26.628Z,21.90
2023-02-09T11:47:26.539Z,21.00
2023-02-09T11:48:26.552Z,22.00
2023-02-09T11:49:26.506Z,22.60
2023-02-09T11:50:26.497Z,19.90
2023-02-09T11:51:26.474Z,19.60
2023-02-09T11:52:26.451Z,21.10
2023-02-09T11:53:26.461Z,21.90
2023-02-09T11:54:26.413Z,20.50
2023-02-09T11:55:26.423Z,21.10
2023-02-09T11:56:26.385Z,20.20
2023-02-09T11:57:26.365Z,20.40
2023-02-09T11:58:26.372Z,21.30
2023-02-09T11:59:26.323Z,21.10
2023-02-09T12:00:26.304Z,22.90
2023-02-09T12:01:26.290Z,21.50
2023-02-09T12:02:26.290Z,20.40
2023-02-09T12:03:26.276Z,22.20
2023-02-09T12:04:26.227Z,22.60
2023-02-09T12:05:26.207Z,20.80
2023-02-09T12:06:26.243Z,21.60
2023-02-09T12:07:26.174Z,22.40
2023-02-09T12:08:26.206Z,23.10
2023-02-09T12:09:26.142Z,24.60
2023-02-09T12:10:26.117Z,27.40
2023-02-09T12:11:27.113Z,23.60
2023-02-09T12:12:26.093Z,21.60
2023-02-09T12:13:26.098Z,21.10
2023-02-09T12:14:26.050Z,20.50
2023-02-09T12:15:26.027Z,22.90
2023-02-09T12:16:26.052Z,21.10
2023-02-09T12:17:25.993Z,21.40
2023-02-09T12:18:26.008Z,20.30
2023-02-09T12:19:25.959Z,21.80
2023-02-09T12:20:25.937Z,20.60
2023-02-09T12:21:25.918Z,20.60
2023-02-09T12:22:25.905Z,20.60
2023-02-09T12:23:25.919Z,19.00
2023-02-09T12:24:25.867Z,19.60
2023-02-09T12:25:25.844Z,20.30
2023-02-09T12:26:25.828Z,20.90
2023-02-09T12:27:25.809Z,22.70
2023-02-09T12:28:25.836Z,19.70
2023-02-09T12:29:25.772Z,22.00
2023-02-09T12:30:25.749Z,20.60
2023-02-09T12:31:25.834Z,21.10
2023-02-09T12:32:25.712Z,21.40
2023-02-09T12:33:25.698Z,19.50
2023-02-09T12:34:25.703Z,19.10
2023-02-09T12:35:25.672Z,19.70
2023-02-09T12:36:26.641Z,17.80
2023-02-09T12:37:29.201Z,22.30
2023-02-09T12:38:26.627Z,20.40
2023-02-09T12:39:25.585Z,20.00
2023-02-09T12:40:25.575Z,21.70
2023-02-09T12:41:25.542Z,20.40
2023-02-09T12:42:25.513Z,23.00
2023-02-09T12:43:26.536Z,20.10
2023-02-09T12:44:25.492Z,20.70
2023-02-09T12:45:25.459Z,19.90
2023-02-09T12:46:25.551Z,21.60
2023-02-09T12:47:25.425Z,20.30
2023-02-09T12:48:25.408Z,20.90
2023-02-09T12:49:25.413Z,21.40
2023-02-09T12:50:25.377Z,20.10
2023-02-09T12:51:25.351Z,20.00
2023-02-09T12:52:25.329Z,19.00